Electra — WQ5910 — position and weather

sailwx.info

Track history (hours):
 
Tides and Currents Weather Stations Pressure Air Temp Water Temp Dewpoint Dewpoint Depression Visibility Wind Speed Wind Dir Waves Ship Positions

Electra

Owner: HELGREN, RICHARD F, OCEANSIDE, CA. More information available from US FCC via Universal Licensing System and Coast Guard Vessel Documentation Center.

Last reported at 2017-Sep-20 23:42 UTC. Time now 2017-Sep-22 20:45 UTC.
Position N 33°12' W 117°24'.

Length 24 m.

Type: Wing in ground effect craft. MMSI: 367394780.

Date/timePositionNaut miles runAvg speedWind from/ knotsBaromVisibWave heightAir tempDewpointWater temp
2017-Sep-20 23:42N 33°12' W 117°24'0 0.6
2017-Sep-20 23:30N 33°12' W 117°24'0 0.0
2017-Sep-20 23:00N 33°12' W 117°24'0 0.5
2017-Sep-20 22:29N 33°12' W 117°23'3 5.6
2017-Sep-20 22:01N 33°10' W 117°23'510.0
2017-Sep-20 21:30N 33°05' W 117°20'1 2.0
2017-Sep-20 21:00N 33°04' W 117°19'0 0.0
2017-Sep-20 20:31N 33°04' W 117°19'1 1.8
2017-Sep-20 20:00N 33°04' W 117°19'1 2.4
2017-Sep-20 19:30N 33°05' W 117°19'0 0.0
2017-Sep-20 19:00N 33°05' W 117°19'0 0.0
2017-Sep-20 18:30N 33°05' W 117°19'1 2.8
2017-Sep-20 18:00N 33°06' W 117°20'5 9.9
2017-Sep-20 17:30N 33°10' W 117°23'2 4.4
2017-Sep-20 17:01N 33°12' W 117°23'0 0.0
2017-Sep-19 22:33N 33°12' W 117°23'0 0.0
2017-Sep-19 22:31N 33°12' W 117°23'3 5.9
2017-Sep-19 22:00N 33°10' W 117°22'5 9.3
2017-Sep-19 21:30N 33°05' W 117°20'1 1.7
2017-Sep-19 21:01N 33°05' W 117°19'0 0.3
2017-Sep-19 20:31N 33°05' W 117°19'0 0.0
2017-Sep-19 20:00N 33°05' W 117°19'0 0.0
2017-Sep-19 19:30N 33°05' W 117°19'0 0.0
2017-Sep-19 19:00N 33°05' W 117°19'0 0.0
2017-Sep-19 18:30N 33°05' W 117°19'1 1.8
2017-Sep-19 18:00N 33°06' W 117°20'510.2
2017-Sep-19 17:30N 33°10' W 117°23'2 4.9
2017-Sep-19 17:00N 33°12' W 117°23'0 0.0
2017-Sep-17 23:06N 33°12' W 117°23'0 1.7
2017-Sep-17 23:00N 33°12' W 117°24'4 7.6
2017-Sep-17 22:30N 33°09' W 117°23'4 8.6
2017-Sep-17 22:00N 33°05' W 117°20'2 3.5
2017-Sep-17 21:30N 33°04' W 117°19'0 0.0
2017-Sep-17 21:00N 33°04' W 117°19'0 0.0
2017-Sep-17 20:30N 33°04' W 117°19'1 2.9
2017-Sep-17 20:00N 33°02' W 117°18'3 6.0
2017-Sep-17 19:31N 32°59' W 117°17'0 0.1
2017-Sep-17 19:00N 32°59' W 117°17'0 0.1
2017-Sep-17 18:30N 32°59' W 117°17'1 1.1
2017-Sep-17 18:00N 32°60' W 117°17'0 0.0
2017-Sep-17 17:30N 32°60' W 117°17'0 0.0
2017-Sep-17 17:00N 32°60' W 117°17'0 0.1
2017-Sep-17 16:30N 32°60' W 117°17'0 0.7
2017-Sep-17 16:00N 32°60' W 117°17'2 3.6
2017-Sep-17 15:30N 33°01' W 117°18'510.2
2017-Sep-17 15:00N 33°06' W 117°21'510.0
2017-Sep-17 14:30N 33°10' W 117°23'2 4.1
2017-Sep-17 14:00N 33°12' W 117°23'0 0.1
2017-Sep-17 13:30N 33°12' W 117°23'0 0.0
2017-Sep-16 23:15N 33°12' W 117°24'2 6.5
2017-Sep-16 23:00N 33°11' W 117°23'5 9.7
2017-Sep-16 22:30N 33°06' W 117°21'5 9.7
2017-Sep-16 22:00N 33°02' W 117°18'3 5.6
2017-Sep-16 21:30N 32°59' W 117°17'0 0.0
2017-Sep-16 21:00N 32°59' W 117°17'0 0.1
2017-Sep-16 20:30N 32°59' W 117°17'2 3.8
2017-Sep-16 20:00N 32°58' W 117°17'0 0.5
2017-Sep-16 19:30N 32°57' W 117°17'3 5.4
2017-Sep-16 19:00N 32°60' W 117°17'0 0.0
2017-Sep-16 18:30N 32°60' W 117°17'0 0.1
2017-Sep-16 18:00N 32°60' W 117°17'0 0.0
2017-Sep-16 17:30N 32°60' W 117°17'0 0.0
2017-Sep-16 17:00N 32°60' W 117°17'0 0.0
2017-Sep-16 16:30N 32°60' W 117°17'0 0.0
2017-Sep-16 16:01N 32°60' W 117°17'2 5.0
2017-Sep-16 15:31N 33°02' W 117°19'510.1
2017-Sep-16 15:00N 33°07' W 117°21'5 9.9
2017-Sep-16 14:30N 33°11' W 117°24'1 2.1
2017-Sep-16 14:00N 33°12' W 117°23'0 0.0
2017-Sep-16 13:30N 33°12' W 117°23'0 0.0
2017-Sep-16 13:00N 33°12' W 117°23'0 0.0
2017-Sep-16 12:31N 33°12' W 117°23'0 0.0
2017-Sep-16 12:00N 33°12' W 117°23'0 0.0
2017-Sep-16 11:31N 33°12' W 117°23'0 0.0
2017-Sep-16 11:00N 33°12' W 117°23'0 0.0
2017-Sep-16 10:30N 33°12' W 117°23'0 0.0
2017-Sep-16 10:00N 33°12' W 117°23'0 0.0
2017-Sep-16 09:30N 33°12' W 117°23'0 0.0
2017-Sep-16 09:01N 33°12' W 117°23'0 0.0
2017-Sep-16 08:30N 33°12' W 117°23'0 0.0
2017-Sep-16 08:00N 33°12' W 117°23'0 0.0
2017-Sep-16 07:30N 33°12' W 117°23'0 0.0
2017-Sep-16 07:00N 33°12' W 117°23'0 0.0
2017-Sep-16 06:30N 33°12' W 117°23'0 0.0
2017-Sep-16 06:01N 33°12' W 117°23'0 0.0
2017-Sep-16 05:31N 33°12' W 117°23'0 0.0
2017-Sep-16 05:00N 33°12' W 117°23'0 0.0
2017-Sep-16 04:30N 33°12' W 117°23'0 0.0
2017-Sep-16 04:00N 33°12' W 117°23'0 0.0
2017-Sep-16 03:30N 33°12' W 117°23'0 0.0
2017-Sep-16 03:00N 33°12' W 117°23'0 0.0
2017-Sep-16 02:30N 33°12' W 117°23'1 1.7
2017-Sep-16 02:00N 33°11' W 117°23'0 0.0
2017-Sep-16 01:30N 33°11' W 117°23'1 1.7
2017-Sep-16 01:00N 33°12' W 117°23'0 0.0
2017-Sep-16 00:30N 33°12' W 117°23'0 0.0
2017-Sep-16 00:01N 33°12' W 117°23'1 1.4
2017-Sep-15 23:30N 33°12' W 117°24'5 9.8
2017-Sep-15 23:00N 33°07' W 117°22'5 9.7
2017-Sep-15 22:30N 33°03' W 117°20'5 9.6
2017-Sep-15 22:01N 32°58' W 117°19'5 9.6
2017-Sep-15 21:31N 32°53' W 117°18'2 5.0
2017-Sep-15 21:01N 32°51' W 117°18'0 0.5
2017-Sep-15 20:31N 32°51' W 117°18'0 0.0
2017-Sep-15 20:01N 32°51' W 117°18'1 2.1
2017-Sep-15 19:30N 32°51' W 117°17'0 0.8
2017-Sep-15 19:00N 32°51' W 117°17'0 0.0
2017-Sep-15 18:30N 32°51' W 117°17'0 0.0
2017-Sep-15 18:00N 32°51' W 117°17'0 0.0
2017-Sep-15 17:30N 32°51' W 117°17'0 0.0
2017-Sep-15 17:01N 32°51' W 117°17'0 0.4
2017-Sep-15 16:31N 32°51' W 117°17'3 6.5
2017-Sep-15 16:01N 32°54' W 117°18'510.5
2017-Sep-15 15:30N 32°60' W 117°19'510.3
2017-Sep-15 15:01N 33°04' W 117°21'510.1
2017-Sep-15 14:30N 33°09' W 117°23'3 6.5
2017-Sep-15 14:01N 33°12' W 117°24'0 0.5
2017-Sep-15 13:31N 33°12' W 117°23'0 0.0
2017-Sep-14 23:14N 33°12' W 117°23'1 2.4
2017-Sep-14 23:00N 33°12' W 117°24'5 9.5
2017-Sep-14 22:30N 33°08' W 117°21'5 9.6
2017-Sep-14 22:00N 33°03' W 117°19'4 8.2
2017-Sep-14 21:30N 32°59' W 117°17'0 0.0
2017-Sep-14 21:00N 32°59' W 117°17'1 1.2
2017-Sep-14 20:30N 32°60' W 117°17'0 0.0
2017-Sep-14 20:00N 32°60' W 117°17'0 0.9
2017-Sep-14 19:30N 32°60' W 117°17'0 0.3
2017-Sep-14 19:00N 32°59' W 117°17'2 4.1
2017-Sep-14 18:30N 32°57' W 117°17'1 1.6
2017-Sep-14 18:00N 32°57' W 117°18'0 0.0
2017-Sep-14 17:30N 32°57' W 117°18'0 0.1
2017-Sep-14 17:00N 32°57' W 117°18'1 1.1
2017-Sep-14 16:30N 32°57' W 117°18'5 9.3
2017-Sep-14 16:00N 33°01' W 117°22'4 8.1
2017-Sep-14 15:30N 33°04' W 117°25'5 9.1
2017-Sep-14 15:00N 33°09' W 117°25'4 8.2
2017-Sep-14 14:30N 33°12' W 117°24'0 0.0
2017-Sep-13 22:03N 33°12' W 117°24'010.1
2017-Sep-13 22:00N 33°12' W 117°24'5 9.6
2017-Sep-13 21:30N 33°08' W 117°21'5 9.1
2017-Sep-13 21:00N 33°04' W 117°19'0 0.1
2017-Sep-13 20:31N 33°04' W 117°19'0 0.0
2017-Sep-13 20:00N 33°04' W 117°19'0 0.0
2017-Sep-13 19:30N 33°04' W 117°19'0 0.0
2017-Sep-13 19:00N 33°04' W 117°19'1 2.2
2017-Sep-13 18:31N 33°05' W 117°19'2 4.7
2017-Sep-13 18:01N 33°06' W 117°21'510.0
2017-Sep-13 17:30N 33°11' W 117°24'1 3.0
2017-Sep-13 17:00N 33°12' W 117°23'0 0.0
2017-Sep-13 16:30N 33°12' W 117°23'1 0.0
2017-Sep-11 22:06N 33°12' W 117°24'1 9.8
2017-Sep-11 22:00N 33°12' W 117°24'5 9.6
2017-Sep-11 21:30N 33°07' W 117°21'3 5.7
2017-Sep-11 21:00N 33°05' W 117°19'0 0.0
2017-Sep-11 20:30N 33°05' W 117°19'0 0.0
2017-Sep-11 20:00N 33°05' W 117°19'0 0.0
2017-Sep-11 19:30N 33°05' W 117°19'0 0.6
2017-Sep-11 19:00N 33°05' W 117°19'0 0.0
2017-Sep-11 18:30N 33°05' W 117°19'2 3.5
2017-Sep-11 18:00N 33°06' W 117°20'510.1
2017-Sep-11 17:30N 33°10' W 117°23'2 3.7
2017-Sep-11 17:00N 33°12' W 117°23'  
Track history (hours):
 
Tides and Currents Weather Stations Pressure Air Temp Water Temp Dewpoint Dewpoint Depression Visibility Wind Speed Wind Dir Waves Ship Positions

Electra

Owner: HELGREN, RICHARD F, OCEANSIDE, CA. More information available from US FCC via Universal Licensing System and Coast Guard Vessel Documentation Center.

Last reported at 2017-Sep-20 23:42 UTC. Time now 2017-Sep-22 20:45 UTC.
Position N 33°12' W 117°24'.

Length 24 m.

Type: Wing in ground effect craft. MMSI: 367394780.

Date/timePositionNaut miles runAvg speedWind from/ knotsBaromVisibWave heightAir tempDewpointWater temp
2017-Sep-20 23:42N 33°12' W 117°24'0 0.6
2017-Sep-20 23:30N 33°12' W 117°24'0 0.0
2017-Sep-20 23:00N 33°12' W 117°24'0 0.5
2017-Sep-20 22:29N 33°12' W 117°23'3 5.6
2017-Sep-20 22:01N 33°10' W 117°23'510.0
2017-Sep-20 21:30N 33°05' W 117°20'1 2.0
2017-Sep-20 21:00N 33°04' W 117°19'0 0.0
2017-Sep-20 20:31N 33°04' W 117°19'1 1.8
2017-Sep-20 20:00N 33°04' W 117°19'1 2.4
2017-Sep-20 19:30N 33°05' W 117°19'0 0.0
2017-Sep-20 19:00N 33°05' W 117°19'0 0.0
2017-Sep-20 18:30N 33°05' W 117°19'1 2.8
2017-Sep-20 18:00N 33°06' W 117°20'5 9.9
2017-Sep-20 17:30N 33°10' W 117°23'2 4.4
2017-Sep-20 17:01N 33°12' W 117°23'0 0.0
2017-Sep-19 22:33N 33°12' W 117°23'0 0.0
2017-Sep-19 22:31N 33°12' W 117°23'3 5.9
2017-Sep-19 22:00N 33°10' W 117°22'5 9.3
2017-Sep-19 21:30N 33°05' W 117°20'1 1.7
2017-Sep-19 21:01N 33°05' W 117°19'0 0.3
2017-Sep-19 20:31N 33°05' W 117°19'0 0.0
2017-Sep-19 20:00N 33°05' W 117°19'0 0.0
2017-Sep-19 19:30N 33°05' W 117°19'0 0.0
2017-Sep-19 19:00N 33°05' W 117°19'0 0.0
2017-Sep-19 18:30N 33°05' W 117°19'1 1.8
2017-Sep-19 18:00N 33°06' W 117°20'510.2
2017-Sep-19 17:30N 33°10' W 117°23'2 4.9
2017-Sep-19 17:00N 33°12' W 117°23'0 0.0
2017-Sep-17 23:06N 33°12' W 117°23'0 1.7
2017-Sep-17 23:00N 33°12' W 117°24'4 7.6
2017-Sep-17 22:30N 33°09' W 117°23'4 8.6
2017-Sep-17 22:00N 33°05' W 117°20'2 3.5
2017-Sep-17 21:30N 33°04' W 117°19'0 0.0
2017-Sep-17 21:00N 33°04' W 117°19'0 0.0
2017-Sep-17 20:30N 33°04' W 117°19'1 2.9
2017-Sep-17 20:00N 33°02' W 117°18'3 6.0
2017-Sep-17 19:31N 32°59' W 117°17'0 0.1
2017-Sep-17 19:00N 32°59' W 117°17'0 0.1
2017-Sep-17 18:30N 32°59' W 117°17'1 1.1
2017-Sep-17 18:00N 32°60' W 117°17'0 0.0
2017-Sep-17 17:30N 32°60' W 117°17'0 0.0
2017-Sep-17 17:00N 32°60' W 117°17'0 0.1
2017-Sep-17 16:30N 32°60' W 117°17'0 0.7
2017-Sep-17 16:00N 32°60' W 117°17'2 3.6
2017-Sep-17 15:30N 33°01' W 117°18'510.2
2017-Sep-17 15:00N 33°06' W 117°21'510.0
2017-Sep-17 14:30N 33°10' W 117°23'2 4.1
2017-Sep-17 14:00N 33°12' W 117°23'0 0.1
2017-Sep-17 13:30N 33°12' W 117°23'0 0.0
2017-Sep-16 23:15N 33°12' W 117°24'2 6.5
2017-Sep-16 23:00N 33°11' W 117°23'5 9.7
2017-Sep-16 22:30N 33°06' W 117°21'5 9.7
2017-Sep-16 22:00N 33°02' W 117°18'3 5.6
2017-Sep-16 21:30N 32°59' W 117°17'0 0.0
2017-Sep-16 21:00N 32°59' W 117°17'0 0.1
2017-Sep-16 20:30N 32°59' W 117°17'2 3.8
2017-Sep-16 20:00N 32°58' W 117°17'0 0.5
2017-Sep-16 19:30N 32°57' W 117°17'3 5.4
2017-Sep-16 19:00N 32°60' W 117°17'0 0.0
2017-Sep-16 18:30N 32°60' W 117°17'0 0.1
2017-Sep-16 18:00N 32°60' W 117°17'0 0.0
2017-Sep-16 17:30N 32°60' W 117°17'0 0.0
2017-Sep-16 17:00N 32°60' W 117°17'0 0.0
2017-Sep-16 16:30N 32°60' W 117°17'0 0.0
2017-Sep-16 16:01N 32°60' W 117°17'2 5.0
2017-Sep-16 15:31N 33°02' W 117°19'510.1
2017-Sep-16 15:00N 33°07' W 117°21'5 9.9
2017-Sep-16 14:30N 33°11' W 117°24'1 2.1
2017-Sep-16 14:00N 33°12' W 117°23'0 0.0
2017-Sep-16 13:30N 33°12' W 117°23'0 0.0
2017-Sep-16 13:00N 33°12' W 117°23'0 0.0
2017-Sep-16 12:31N 33°12' W 117°23'0 0.0
2017-Sep-16 12:00N 33°12' W 117°23'0 0.0
2017-Sep-16 11:31N 33°12' W 117°23'0 0.0
2017-Sep-16 11:00N 33°12' W 117°23'0 0.0
2017-Sep-16 10:30N 33°12' W 117°23'0 0.0
2017-Sep-16 10:00N 33°12' W 117°23'0 0.0
2017-Sep-16 09:30N 33°12' W 117°23'0 0.0
2017-Sep-16 09:01N 33°12' W 117°23'0 0.0
2017-Sep-16 08:30N 33°12' W 117°23'0 0.0
2017-Sep-16 08:00N 33°12' W 117°23'0 0.0
2017-Sep-16 07:30N 33°12' W 117°23'0 0.0
2017-Sep-16 07:00N 33°12' W 117°23'0 0.0
2017-Sep-16 06:30N 33°12' W 117°23'0 0.0
2017-Sep-16 06:01N 33°12' W 117°23'0 0.0
2017-Sep-16 05:31N 33°12' W 117°23'0 0.0
2017-Sep-16 05:00N 33°12' W 117°23'0 0.0
2017-Sep-16 04:30N 33°12' W 117°23'0 0.0
2017-Sep-16 04:00N 33°12' W 117°23'0 0.0
2017-Sep-16 03:30N 33°12' W 117°23'0 0.0
2017-Sep-16 03:00N 33°12' W 117°23'0 0.0
2017-Sep-16 02:30N 33°12' W 117°23'1 1.7
2017-Sep-16 02:00N 33°11' W 117°23'0 0.0
2017-Sep-16 01:30N 33°11' W 117°23'1 1.7
2017-Sep-16 01:00N 33°12' W 117°23'0 0.0
2017-Sep-16 00:30N 33°12' W 117°23'0 0.0
2017-Sep-16 00:01N 33°12' W 117°23'1 1.4
2017-Sep-15 23:30N 33°12' W 117°24'5 9.8
2017-Sep-15 23:00N 33°07' W 117°22'5 9.7
2017-Sep-15 22:30N 33°03' W 117°20'5 9.6
2017-Sep-15 22:01N 32°58' W 117°19'5 9.6
2017-Sep-15 21:31N 32°53' W 117°18'2 5.0
2017-Sep-15 21:01N 32°51' W 117°18'0 0.5
2017-Sep-15 20:31N 32°51' W 117°18'0 0.0
2017-Sep-15 20:01N 32°51' W 117°18'1 2.1
2017-Sep-15 19:30N 32°51' W 117°17'0 0.8
2017-Sep-15 19:00N 32°51' W 117°17'0 0.0
2017-Sep-15 18:30N 32°51' W 117°17'0 0.0
2017-Sep-15 18:00N 32°51' W 117°17'0 0.0
2017-Sep-15 17:30N 32°51' W 117°17'0 0.0
2017-Sep-15 17:01N 32°51' W 117°17'0 0.4
2017-Sep-15 16:31N 32°51' W 117°17'3 6.5
2017-Sep-15 16:01N 32°54' W 117°18'510.5
2017-Sep-15 15:30N 32°60' W 117°19'510.3
2017-Sep-15 15:01N 33°04' W 117°21'510.1
2017-Sep-15 14:30N 33°09' W 117°23'3 6.5
2017-Sep-15 14:01N 33°12' W 117°24'0 0.5
2017-Sep-15 13:31N 33°12' W 117°23'0 0.0
2017-Sep-14 23:14N 33°12' W 117°23'1 2.4
2017-Sep-14 23:00N 33°12' W 117°24'5 9.5
2017-Sep-14 22:30N 33°08' W 117°21'5 9.6
2017-Sep-14 22:00N 33°03' W 117°19'4 8.2
2017-Sep-14 21:30N 32°59' W 117°17'0 0.0
2017-Sep-14 21:00N 32°59' W 117°17'1 1.2
2017-Sep-14 20:30N 32°60' W 117°17'0 0.0
2017-Sep-14 20:00N 32°60' W 117°17'0 0.9
2017-Sep-14 19:30N 32°60' W 117°17'0 0.3
2017-Sep-14 19:00N 32°59' W 117°17'2 4.1
2017-Sep-14 18:30N 32°57' W 117°17'1 1.6
2017-Sep-14 18:00N 32°57' W 117°18'0 0.0
2017-Sep-14 17:30N 32°57' W 117°18'0 0.1
2017-Sep-14 17:00N 32°57' W 117°18'1 1.1
2017-Sep-14 16:30N 32°57' W 117°18'5 9.3
2017-Sep-14 16:00N 33°01' W 117°22'4 8.1
2017-Sep-14 15:30N 33°04' W 117°25'5 9.1
2017-Sep-14 15:00N 33°09' W 117°25'4 8.2
2017-Sep-14 14:30N 33°12' W 117°24'0 0.0
2017-Sep-13 22:03N 33°12' W 117°24'010.1
2017-Sep-13 22:00N 33°12' W 117°24'5 9.6
2017-Sep-13 21:30N 33°08' W 117°21'5 9.1
2017-Sep-13 21:00N 33°04' W 117°19'0 0.1
2017-Sep-13 20:31N 33°04' W 117°19'0 0.0
2017-Sep-13 20:00N 33°04' W 117°19'0 0.0
2017-Sep-13 19:30N 33°04' W 117°19'0 0.0
2017-Sep-13 19:00N 33°04' W 117°19'1 2.2
2017-Sep-13 18:31N 33°05' W 117°19'2 4.7
2017-Sep-13 18:01N 33°06' W 117°21'510.0
2017-Sep-13 17:30N 33°11' W 117°24'1 3.0
2017-Sep-13 17:00N 33°12' W 117°23'0 0.0
2017-Sep-13 16:30N 33°12' W 117°23'1 0.0
2017-Sep-11 22:06N 33°12' W 117°24'1 9.8
2017-Sep-11 22:00N 33°12' W 117°24'5 9.6
2017-Sep-11 21:30N 33°07' W 117°21'3 5.7
2017-Sep-11 21:00N 33°05' W 117°19'0 0.0
2017-Sep-11 20:30N 33°05' W 117°19'0 0.0
2017-Sep-11 20:00N 33°05' W 117°19'0 0.0
2017-Sep-11 19:30N 33°05' W 117°19'0 0.6
2017-Sep-11 19:00N 33°05' W 117°19'0 0.0
2017-Sep-11 18:30N 33°05' W 117°19'2 3.5
2017-Sep-11 18:00N 33°06' W 117°20'510.1
2017-Sep-11 17:30N 33°10' W 117°23'2 3.7
2017-Sep-11 17:00N 33°12' W 117°23'  

Dump ship's entire track history